Thursday, January 17, 2019, 6:32 AM EST
Back to Local

KMIV, Millville Municipal Airport

Location: Millville, NJ, United States Lat: 39.367
Local Time: 6:32 AM EST (11:32 GMT) Lon: -75.083
Time Zone: US/Eastern Elev: 85 ft

Show me the last for .
Show Coded

Time T Td Feel RH Dir Speed Gust Alt SLP Vis Weather Sky Remarks
2019-01-17 05:54 26 17 22 68 350° 3 - 30.33 30.33 10 CLR None
2019-01-17 04:54 30 18 25 60 330° 5 - 30.32 30.32 10 BKN047 None
2019-01-17 03:54 31 20 25 63 340° 6 - 30.31 30.31 10 SCT048 None
2019-01-17 02:54 32 24 29 72 300° 3 - 30.30 30.30 10 BKN048 None
2019-01-17 01:54 31 25 - 78 - Calm - 30.29 30.29 10 OVC049 None
2019-01-17 00:54 33 25 28 71 270° 6 - 30.28 30.28 10 OVC047 6-hr Min Temp (1am): 27.0°F
6-hr Max Temp (1am): 37.0°F
2019-01-16 23:54 29 23 25 78 230° 3 - 30.27 30.27 10 SCT050 24-hr Min Temp (12am): 12.9°F
24-hr Max Temp (12am): 37.9°F
2019-01-16 22:54 32 22 26 65 270° 7 - 30.26 30.26 10 CLR None
2019-01-16 21:54 36 24 30 61 270° 8 - 30.24 30.24 10 BKN048 None
2019-01-16 20:54 36 26 30 66 290° 8 - 30.23 30.23 10 OVC047 None
2019-01-16 19:54 36 28 31 72 290° 6 - 30.22 30.21 10 OVC046 None
2019-01-16 18:54 35 28 31 75 270° 5 - 30.20 30.20 10 OVC043 6-hr Min Temp (7pm): 35.1°F
6-hr Max Temp (7pm): 37.9°F
2019-01-16 17:54 36 28 30 72 270° 7 - 30.18 30.17 10 OVC042 None
2019-01-16 16:54 36 28 30 72 270° 8 - 30.15 30.15 10 OVC039 None
2019-01-16 15:54 37 27 30 66 270° 10 - 30.13 30.13 10 OVC038 None
2019-01-16 14:54 37 27 30 66 280° 10 - 30.12 30.11 10 OVC037 None
2019-01-16 13:54 37 27 30 66 260° 9 - 30.11 30.11 10 OVC035 None
2019-01-16 12:54 36 27 29 69 260° 9 - 30.12 30.11 10 OVC035 6-hr Min Temp (1pm): 17.1°F
6-hr Max Temp (1pm): 36.0°F
2019-01-16 11:54 35 27 29 72 270° 7 - 30.14 30.14 9 OVC032 None
2019-01-16 10:54 35 26 29 69 240° 8 - 30.16 30.15 10 OVC032 None
2019-01-16 09:54 33 26 25 75 260° 9 - 30.15 30.15 9 OVC032 None
2019-01-16 08:54 27 25 23 92 260° 3 - 30.13 30.13 4 BR OVC033 None
2019-01-16 07:54 19 16 - 87 - Calm - 30.12 30.12 4 BR CLR None
2019-01-16 07:46 19 16 - 87 - Calm - 30.12 - 5 BR SCT029 None
2019-01-16 06:54 17 14 - 87 - Calm - 30.11 30.11 7 BKN029 6-hr Min Temp (7am): 12.9°F
6-hr Max Temp (7am): 17.1°F

Support USWX by starting your Amazon purchase here.